createdAt,value
2022-08-11T00:01:20.757Z,6
2022-08-11T00:02:36.066Z,6.1
2022-08-11T00:03:51.381Z,6
2022-08-11T00:05:07.659Z,6.5
2022-08-11T00:06:23.971Z,6.5
2022-08-11T00:07:40.246Z,6.3
2022-08-11T00:08:56.553Z,6.4
2022-08-11T00:10:12.838Z,6.1
2022-08-11T00:11:29.142Z,6.4
2022-08-11T00:12:45.438Z,6.4
2022-08-11T00:14:01.000Z,6.5
2022-08-11T00:15:18.000Z,6.4
2022-08-11T00:16:33.337Z,6.1
2022-08-11T00:17:48.654Z,6.1
2022-08-11T00:19:04.943Z,6.3
2022-08-11T00:20:21.245Z,6.6
2022-08-11T00:21:37.531Z,6.6
2022-08-11T00:22:53.825Z,6.6
2022-08-11T00:24:10.113Z,6.9
2022-08-11T00:25:26.413Z,7.2
2022-08-11T00:26:42.699Z,7.3
2022-08-11T00:27:59.005Z,7.2
2022-08-11T00:29:15.295Z,7.3
2022-08-11T00:30:31.589Z,7.2
2022-08-11T00:31:47.880Z,7.2
2022-08-11T00:33:04.182Z,6.9
2022-08-11T00:34:19.481Z,6.7
2022-08-11T00:35:35.789Z,6.4
2022-08-11T00:36:52.082Z,6.4
2022-08-11T00:38:08.360Z,6.4
2022-08-11T00:39:24.667Z,6.2
2022-08-11T00:40:40.957Z,6
2022-08-11T00:41:57.256Z,6
2022-08-11T00:43:13.535Z,6.1
2022-08-11T00:44:29.843Z,5.8
2022-08-11T00:45:46.133Z,6
2022-08-11T00:47:02.434Z,5.8
2022-08-11T00:48:17.738Z,5.8
2022-08-11T00:49:34.038Z,5.5
2022-08-11T00:50:50.333Z,5.7
2022-08-11T00:52:06.623Z,5.6
2022-08-11T00:53:22.920Z,5.5
2022-08-11T00:54:39.213Z,5.8
2022-08-11T00:55:55.513Z,5.5
2022-08-11T00:57:11.799Z,5.7
2022-08-11T00:58:28.101Z,5.6
2022-08-11T00:59:44.382Z,5.8
2022-08-11T01:01:00.689Z,5.6
2022-08-11T01:02:16.988Z,5.6
2022-08-11T01:03:33.270Z,5.8
2022-08-11T01:04:48.575Z,5.8
2022-08-11T01:06:04.876Z,5.7
2022-08-11T01:07:21.179Z,5.8
2022-08-11T01:08:37.475Z,5.7
2022-08-11T01:09:53.770Z,5.8
2022-08-11T01:11:10.048Z,5.7
2022-08-11T01:12:26.340Z,5.5
2022-08-11T01:13:42.660Z,5.9
2022-08-11T01:14:58.931Z,5.6
2022-08-11T01:16:15.228Z,5.8
2022-08-11T01:17:31.530Z,5.7
2022-08-11T01:18:47.812Z,5.9
2022-08-11T01:20:04.113Z,5.7
2022-08-11T01:21:19.423Z,5.9
2022-08-11T01:22:35.706Z,9.6
2022-08-11T01:23:52.015Z,8.5
2022-08-11T01:25:08.313Z,7.1
2022-08-11T01:26:24.591Z,9
2022-08-11T01:27:40.888Z,6.7
2022-08-11T01:28:57.178Z,6.2
2022-08-11T01:30:13.485Z,5.8
2022-08-11T01:31:29.781Z,5.6
2022-08-11T01:32:46.070Z,5.5
2022-08-11T01:34:02.357Z,5.6
2022-08-11T01:35:18.647Z,6.1
2022-08-11T01:36:34.955Z,6.1
2022-08-11T01:37:50.266Z,9.6
2022-08-11T01:40:22.855Z,8.7
2022-08-11T01:41:39.142Z,9.6
2022-08-11T01:42:55.445Z,8.2
2022-08-11T01:44:11.735Z,5.9
2022-08-11T01:45:28.028Z,5.7
2022-08-11T01:46:44.326Z,6
2022-08-11T01:48:00.610Z,6.4
2022-08-11T01:49:16.897Z,6.1
2022-08-11T01:50:33.192Z,6.2
2022-08-11T01:51:49.482Z,6.2
2022-08-11T01:53:05.778Z,6.2
2022-08-11T01:54:21.096Z,6
2022-08-11T01:55:37.396Z,5.9
2022-08-11T01:56:53.679Z,6.2
2022-08-11T01:58:09.972Z,6.6
2022-08-11T01:59:26.264Z,6
2022-08-11T02:00:42.559Z,5.7
2022-08-11T02:03:15.161Z,5.8
2022-08-11T02:04:31.445Z,6
2022-08-11T02:05:47.737Z,6.1
2022-08-11T02:07:04.043Z,5.9
2022-08-11T02:08:20.333Z,6.4
2022-08-11T02:09:36.619Z,6
2022-08-11T02:10:51.940Z,6
2022-08-11T02:12:08.231Z,6
2022-08-11T02:13:24.516Z,5.8
2022-08-11T02:14:40.817Z,6.4
2022-08-11T02:15:57.106Z,6.1
2022-08-11T02:17:13.414Z,6.5
2022-08-11T02:18:29.701Z,6.7
2022-08-11T02:19:45.983Z,6.1
2022-08-11T02:21:02.296Z,6.2
2022-08-11T02:22:18.576Z,6.2
2022-08-11T02:23:34.865Z,6.2
2022-08-11T02:24:51.168Z,5.9
2022-08-11T02:26:07.462Z,6.2
2022-08-11T02:27:22.764Z,6.2
2022-08-11T02:28:39.055Z,5.9
2022-08-11T02:29:55.366Z,6.2
2022-08-11T02:31:11.651Z,6
2022-08-11T02:32:27.940Z,6.1
2022-08-11T02:33:44.248Z,5.7
2022-08-11T02:35:00.537Z,6
2022-08-11T02:36:16.831Z,5.9
2022-08-11T02:38:49.414Z,5.9
2022-08-11T02:41:22.006Z,6.1
2022-08-11T02:42:38.292Z,6
2022-08-11T02:43:53.599Z,6.1
2022-08-11T02:45:09.909Z,6.3
2022-08-11T02:46:26.199Z,5.9
2022-08-11T02:48:58.793Z,6
2022-08-11T02:50:14.098Z,6
2022-08-11T02:51:29.418Z,6.5
2022-08-11T02:52:45.696Z,6.1
2022-08-11T02:54:02.002Z,6.2
2022-08-11T02:56:34.585Z,6.3
2022-08-11T02:57:50.884Z,6.1
2022-08-11T02:59:07.113Z,6.1
2022-08-11T03:00:23.415Z,6.6
2022-08-11T03:01:39.703Z,6
2022-08-11T03:02:55.995Z,6.2
2022-08-11T03:04:12.245Z,6.1
2022-08-11T03:05:28.484Z,6.2
2022-08-11T03:06:44.795Z,6.6
2022-08-11T03:08:00.095Z,6.3
2022-08-11T03:09:16.347Z,6.4
2022-08-11T03:10:32.578Z,6.3
2022-08-11T03:11:48.844Z,6.5
2022-08-11T03:13:05.097Z,6.2
2022-08-11T03:14:21.319Z,6.2
2022-08-11T03:15:37.568Z,6.1
2022-08-11T03:16:53.800Z,6.1
2022-08-11T03:18:09.076Z,6.2
2022-08-11T03:19:24.324Z,6.5
2022-08-11T03:20:40.571Z,7
2022-08-11T03:21:56.797Z,6.5
2022-08-11T03:23:13.041Z,6.1
2022-08-11T03:24:29.286Z,6.2
2022-08-11T03:25:45.522Z,6.1
2022-08-11T03:27:01.774Z,6.6
2022-08-11T03:28:18.018Z,7.1
2022-08-11T03:29:34.238Z,6.7
2022-08-11T03:30:50.475Z,6.8
2022-08-11T03:32:06.734Z,6.6
2022-08-11T03:33:22.962Z,6.4
2022-08-11T03:34:39.199Z,6.8
2022-08-11T03:35:54.466Z,6.3
2022-08-11T03:37:10.700Z,6.4
2022-08-11T03:38:26.947Z,6.6
2022-08-11T03:39:43.176Z,6.4
2022-08-11T03:42:15.000Z,6.4
2022-08-11T03:43:31.905Z,6.5
2022-08-11T03:44:48.142Z,6.2
2022-08-11T03:46:04.380Z,6.7
2022-08-11T03:47:20.621Z,6.7
2022-08-11T03:48:36.868Z,6.6
2022-08-11T03:49:53.093Z,6.4
2022-08-11T03:51:09.337Z,6.7
2022-08-11T03:52:24.603Z,6.6
2022-08-11T03:53:40.841Z,6.5
2022-08-11T03:54:57.071Z,6.6
2022-08-11T03:56:13.316Z,6.4
2022-08-11T03:57:29.568Z,6.8
2022-08-11T03:58:45.801Z,6.6
2022-08-11T04:00:02.033Z,6.9
2022-08-11T04:01:18.281Z,6.6
2022-08-11T04:02:34.511Z,6.5
2022-08-11T04:05:06.989Z,6.7
2022-08-11T04:06:23.245Z,6.6
2022-08-11T04:07:39.480Z,6.6
2022-08-11T04:08:54.735Z,6.8
2022-08-11T04:10:10.982Z,6.6
2022-08-11T04:11:27.206Z,6.4
2022-08-11T04:12:43.456Z,6.7
2022-08-11T04:13:59.694Z,6.3
2022-08-11T04:15:15.941Z,6.3
2022-08-11T04:16:32.172Z,6.1
2022-08-11T04:17:48.411Z,6.2
2022-08-11T04:20:20.894Z,6.3
2022-08-11T04:21:37.123Z,6.2
2022-08-11T04:22:53.369Z,6.3
2022-08-11T04:24:09.612Z,6.4
2022-08-11T04:25:24.859Z,6.1
2022-08-11T04:26:41.111Z,6.9
2022-08-11T04:27:57.350Z,6.5
2022-08-11T04:29:13.588Z,6.1
2022-08-11T04:30:29.834Z,6.2
2022-08-11T04:31:46.078Z,6.1
2022-08-11T04:33:02.315Z,6.2
2022-08-11T04:34:18.540Z,6.3
2022-08-11T04:35:34.781Z,6.3
2022-08-11T04:36:51.021Z,6.4
2022-08-11T04:38:07.274Z,6.5
2022-08-11T04:39:23.515Z,6.7
2022-08-11T04:40:39.759Z,6.5
2022-08-11T04:41:54.995Z,6.5
2022-08-11T04:43:11.245Z,6.4
2022-08-11T04:44:27.493Z,6.3
2022-08-11T04:45:43.734Z,6.2
2022-08-11T04:46:59.972Z,6.3
2022-08-11T04:48:16.210Z,6.5
2022-08-11T04:49:32.453Z,6.7
2022-08-11T04:50:48.687Z,6.4
2022-08-11T04:52:04.927Z,6.4
2022-08-11T04:53:21.165Z,6.7
2022-08-11T04:54:37.415Z,6.5
2022-08-11T04:55:53.637Z,6.4
2022-08-11T04:57:09.888Z,6.6
2022-08-11T04:58:25.151Z,6.6
2022-08-11T04:59:41.378Z,6.9
2022-08-11T05:00:57.625Z,6.6
2022-08-11T05:02:13.860Z,6.5
2022-08-11T05:03:29.128Z,6.4
2022-08-11T05:04:45.359Z,6.6
2022-08-11T05:06:01.604Z,6.5
2022-08-11T05:07:17.849Z,6.8
2022-08-11T05:08:34.093Z,6.3
2022-08-11T05:09:50.331Z,6.4
2022-08-11T05:11:06.569Z,6.2
2022-08-11T05:12:22.800Z,6.2
2022-08-11T05:13:39.051Z,6.1
2022-08-11T05:14:55.283Z,6
2022-08-11T05:16:11.526Z,6.1
2022-08-11T05:17:27.773Z,6.3
2022-08-11T05:18:44.012Z,6.1
2022-08-11T05:19:59.267Z,5.9
2022-08-11T05:21:15.493Z,6
2022-08-11T05:22:31.738Z,5.7
2022-08-11T05:23:47.978Z,5.9
2022-08-11T05:25:04.218Z,6.1
2022-08-11T05:26:20.465Z,6
2022-08-11T05:27:36.694Z,5.9
2022-08-11T05:28:52.935Z,6.1
2022-08-11T05:30:09.171Z,6.3
2022-08-11T05:31:25.425Z,5.9
2022-08-11T05:32:41.661Z,5.8
2022-08-11T05:33:57.911Z,5.8
2022-08-11T05:35:14.139Z,5.7
2022-08-11T05:36:29.388Z,5.7
2022-08-11T05:37:45.646Z,5.6
2022-08-11T05:39:01.877Z,5.5
2022-08-11T05:40:18.108Z,5.7
2022-08-11T05:41:34.356Z,5.3
2022-08-11T05:42:50.599Z,5.7
2022-08-11T05:44:06.836Z,5.7
2022-08-11T05:45:23.082Z,5.5
2022-08-11T05:46:39.315Z,5.4
2022-08-11T05:47:55.551Z,5.1
2022-08-11T05:49:11.789Z,5.3
2022-08-11T05:50:28.037Z,5.3
2022-08-11T05:51:44.273Z,5.4
2022-08-11T05:52:59.545Z,5.1
2022-08-11T05:54:15.769Z,5.2
2022-08-11T05:55:32.010Z,5.2
2022-08-11T05:56:48.257Z,5.5
2022-08-11T05:58:04.498Z,5.1
2022-08-11T05:59:20.734Z,5.2
2022-08-11T06:00:36.984Z,5.1
2022-08-11T06:01:53.213Z,5.1
2022-08-11T06:03:09.464Z,5.1
2022-08-11T06:04:25.702Z,5.3
2022-08-11T06:05:41.941Z,4.7
2022-08-11T06:06:58.168Z,5.1
2022-08-11T06:08:14.419Z,4.9
2022-08-11T06:09:29.678Z,5.1
2022-08-11T06:10:45.918Z,5.1
2022-08-11T06:12:02.148Z,5
2022-08-11T06:13:18.399Z,5.3
2022-08-11T06:14:34.624Z,5.3
2022-08-11T06:15:50.862Z,5.6
2022-08-11T06:17:07.120Z,5.6
2022-08-11T06:18:23.345Z,5.3
2022-08-11T06:19:39.581Z,5.7
2022-08-11T06:22:12.074Z,5.2
2022-08-11T06:23:28.303Z,5.1
2022-08-11T06:24:44.551Z,5.3
2022-08-11T06:25:59.810Z,5.2
2022-08-11T06:27:16.044Z,5.1
2022-08-11T06:28:32.289Z,5.3
2022-08-11T06:29:48.525Z,5.2
2022-08-11T06:31:04.758Z,4.9
2022-08-11T06:32:21.015Z,4.9
2022-08-11T06:33:37.241Z,5
2022-08-11T06:34:53.478Z,4.7
2022-08-11T06:36:09.720Z,4.6
2022-08-11T06:37:25.969Z,4.8
2022-08-11T06:38:42.205Z,4.6
2022-08-11T06:39:58.453Z,4.8
2022-08-11T06:41:14.694Z,4.8
2022-08-11T06:42:29.945Z,5
2022-08-11T06:43:46.191Z,4.5
2022-08-11T06:45:02.417Z,4.4
2022-08-11T06:46:18.663Z,4.8
2022-08-11T06:47:34.912Z,4.7
2022-08-11T06:48:51.137Z,5.6
2022-08-11T06:50:07.389Z,5.4
2022-08-11T06:51:23.617Z,5.4
2022-08-11T06:52:39.865Z,5.4
2022-08-11T06:53:56.095Z,5.7
2022-08-11T06:55:12.347Z,6.1
2022-08-11T06:56:28.577Z,4.2
2022-08-11T06:57:44.823Z,4.3
2022-08-11T06:59:00.075Z,4.3
2022-08-11T07:00:16.319Z,4.3
2022-08-11T07:01:32.560Z,4.2
2022-08-11T07:02:48.799Z,4.2
2022-08-11T07:04:05.029Z,4.3
2022-08-11T07:05:21.269Z,4.1
2022-08-11T07:07:53.754Z,4
2022-08-11T07:09:09.993Z,4.1
2022-08-11T07:10:26.241Z,4.1
2022-08-11T07:11:42.469Z,4.6
2022-08-11T07:12:58.713Z,4.1
2022-08-11T07:14:14.967Z,4.1
2022-08-11T07:15:30.213Z,3.9
2022-08-11T07:16:46.456Z,4.2
2022-08-11T07:18:02.696Z,4
2022-08-11T07:19:18.945Z,3.9
2022-08-11T07:20:35.173Z,4
2022-08-11T07:23:07.653Z,3.5
2022-08-11T07:24:23.902Z,3.1
2022-08-11T07:25:40.133Z,3.5
2022-08-11T07:26:56.375Z,3.5
2022-08-11T07:28:12.621Z,3.8
2022-08-11T07:29:28.865Z,4.7
2022-08-11T07:30:45.096Z,3.6
2022-08-11T07:32:00.359Z,3.7
2022-08-11T07:33:16.598Z,3.7
2022-08-11T07:34:32.829Z,3.7
2022-08-11T07:35:49.074Z,3.9
2022-08-11T07:37:05.318Z,3.8
2022-08-11T07:38:21.545Z,4.1
2022-08-11T07:39:37.783Z,4
2022-08-11T07:40:54.028Z,4.1
2022-08-11T07:42:10.266Z,3.9
2022-08-11T07:43:26.515Z,3.9
2022-08-11T07:44:42.741Z,4.1
2022-08-11T07:45:58.981Z,4
2022-08-11T07:47:15.238Z,4
2022-08-11T07:48:30.497Z,4.2
2022-08-11T07:49:46.735Z,3.7
2022-08-11T07:51:02.977Z,3.6
2022-08-11T07:52:19.217Z,3.8
2022-08-11T07:53:35.457Z,4.3
2022-08-11T07:54:51.694Z,3.8
2022-08-11T07:56:07.928Z,3.4
2022-08-11T07:57:24.163Z,4
2022-08-11T07:58:40.416Z,3.8
2022-08-11T07:59:56.643Z,3.8
2022-08-11T08:01:12.894Z,3.9
2022-08-11T08:02:29.123Z,4.1
2022-08-11T08:03:45.370Z,3.8
2022-08-11T08:05:00.626Z,3.9
2022-08-11T08:06:16.861Z,3.8
2022-08-11T08:08:49.345Z,3.7
2022-08-11T08:10:05.576Z,4.3
2022-08-11T08:11:21.821Z,3.4
2022-08-11T08:12:38.069Z,4
2022-08-11T08:13:54.298Z,3.9
2022-08-11T08:15:10.542Z,3.4
2022-08-11T08:16:26.788Z,3.3
2022-08-11T08:17:43.032Z,3.6
2022-08-11T08:18:59.260Z,3.6
2022-08-11T08:20:15.501Z,3.3
2022-08-11T08:21:30.754Z,3.4
2022-08-11T08:22:46.997Z,3.6
2022-08-11T08:24:03.244Z,3.6
2022-08-11T08:25:19.475Z,3.6
2022-08-11T08:26:35.733Z,3.5
2022-08-11T08:27:51.952Z,3.4
2022-08-11T08:29:08.205Z,3.4
2022-08-11T08:30:24.437Z,3.3
2022-08-11T08:31:40.680Z,3.4
2022-08-11T08:32:56.926Z,3.4
2022-08-11T08:34:13.155Z,3.3
2022-08-11T08:35:29.405Z,3.4
2022-08-11T08:36:45.621Z,3.1
2022-08-11T08:38:00.888Z,3.3
2022-08-11T08:39:17.116Z,3.2
2022-08-11T08:40:33.371Z,3.3
2022-08-11T08:41:49.609Z,3.1
2022-08-11T08:43:05.838Z,3.2
2022-08-11T08:44:22.083Z,3.2
2022-08-11T08:45:38.318Z,3.1
2022-08-11T08:46:54.566Z,3.2
2022-08-11T08:48:10.801Z,3.2
2022-08-11T08:49:27.048Z,3.2
2022-08-11T08:50:43.285Z,3.6
2022-08-11T08:51:59.526Z,3.1
2022-08-11T08:53:15.762Z,3.4
2022-08-11T08:54:31.013Z,3.2
2022-08-11T08:55:47.258Z,3.3
2022-08-11T08:57:03.499Z,3.3
2022-08-11T08:58:19.748Z,3.3
2022-08-11T09:00:52.213Z,3.4
2022-08-11T09:02:08.465Z,3.2
2022-08-11T09:03:24.703Z,3
2022-08-11T09:04:40.936Z,3.3
2022-08-11T09:05:57.181Z,3.1
2022-08-11T09:07:13.414Z,3.1
2022-08-11T09:08:29.661Z,3
2022-08-11T09:09:45.904Z,3.2
2022-08-11T09:11:01.169Z,3.1
2022-08-11T09:12:17.403Z,3.1
2022-08-11T09:13:33.646Z,2.9
2022-08-11T09:14:49.888Z,3.1
2022-08-11T09:16:06.125Z,2.8
2022-08-11T09:17:22.353Z,3.1
2022-08-11T09:18:37.626Z,3
2022-08-11T09:19:53.857Z,2.6
2022-08-11T09:21:10.102Z,3.1
2022-08-11T09:22:26.352Z,3
2022-08-11T09:23:42.588Z,2.9
2022-08-11T09:24:58.821Z,3.2
2022-08-11T09:26:15.060Z,3
2022-08-11T09:27:31.310Z,2.8
2022-08-11T09:28:47.552Z,2.7
2022-08-11T09:30:03.784Z,2.8
2022-08-11T09:31:20.018Z,2.9
2022-08-11T09:32:36.256Z,2.8
2022-08-11T09:33:52.501Z,2.7
2022-08-11T09:35:07.768Z,2.8
2022-08-11T09:36:24.006Z,2.7
2022-08-11T09:37:40.239Z,2.8
2022-08-11T09:38:56.490Z,2.7
2022-08-11T09:40:12.721Z,3
2022-08-11T09:41:28.956Z,2.9
2022-08-11T09:42:45.202Z,2.9
2022-08-11T09:44:01.444Z,3
2022-08-11T09:45:17.688Z,3.1
2022-08-11T09:47:50.164Z,3
2022-08-11T09:49:06.397Z,3.1
2022-08-11T09:50:22.654Z,3
2022-08-11T09:51:37.894Z,3
2022-08-11T09:52:54.133Z,3
2022-08-11T09:54:10.377Z,3
2022-08-11T09:55:26.626Z,3
2022-08-11T09:56:42.854Z,3.1
2022-08-11T09:57:59.098Z,3
2022-08-11T09:59:15.348Z,3.1
2022-08-11T10:00:31.591Z,3.1
2022-08-11T10:01:47.823Z,2.9
2022-08-11T10:03:04.057Z,3.1
2022-08-11T10:05:36.543Z,3
2022-08-11T10:06:52.787Z,3.2
2022-08-11T10:08:08.031Z,3.1
2022-08-11T10:09:24.290Z,3.1
2022-08-11T10:10:40.515Z,3.2
2022-08-11T10:11:56.755Z,3.1
2022-08-11T10:13:13.006Z,3.1
2022-08-11T10:14:29.239Z,3
2022-08-11T10:15:45.480Z,3.2
2022-08-11T10:17:01.725Z,3
2022-08-11T10:18:17.958Z,3.2
2022-08-11T10:19:34.199Z,3.3
2022-08-11T10:20:50.435Z,3
2022-08-11T10:22:06.686Z,3
2022-08-11T10:23:22.922Z,3.2
2022-08-11T10:24:38.182Z,3.1
2022-08-11T10:25:54.416Z,3.6
2022-08-11T10:27:10.661Z,3.1
2022-08-11T10:28:26.900Z,3.2
2022-08-11T10:29:43.135Z,3
2022-08-11T10:30:59.381Z,2.9
2022-08-11T10:33:31.862Z,3.1
2022-08-11T10:36:04.343Z,3.1
2022-08-11T10:37:20.575Z,3
2022-08-11T10:38:36.819Z,3.1
2022-08-11T10:41:09.310Z,3.2
2022-08-11T10:42:24.571Z,3
2022-08-11T10:43:39.813Z,3.2
2022-08-11T10:44:56.054Z,3.3
2022-08-11T10:46:12.299Z,3.2
2022-08-11T10:47:28.542Z,3.3
2022-08-11T10:48:44.786Z,3
2022-08-11T10:50:01.032Z,3.3
2022-08-11T10:51:17.266Z,3.2
2022-08-11T10:52:33.498Z,3.3
2022-08-11T10:53:49.752Z,3
2022-08-11T10:55:05.984Z,2.9
2022-08-11T10:56:21.234Z,3.3
2022-08-11T10:57:36.510Z,3
2022-08-11T10:58:52.737Z,3.1
2022-08-11T11:00:08.981Z,3
2022-08-11T11:01:25.221Z,3.1
2022-08-11T11:02:41.451Z,2.8
2022-08-11T11:03:57.703Z,2.9
2022-08-11T11:05:13.940Z,2.9
2022-08-11T11:06:30.180Z,2.9
2022-08-11T11:07:46.427Z,2.9
2022-08-11T11:09:02.664Z,2.9
2022-08-11T11:10:18.895Z,2.7
2022-08-11T11:11:35.140Z,2.8
2022-08-11T11:12:51.373Z,2.8
2022-08-11T11:14:06.642Z,2.7
2022-08-11T11:15:22.882Z,2.7
2022-08-11T11:16:39.126Z,2.9
2022-08-11T11:17:55.357Z,2.8
2022-08-11T11:19:11.607Z,2.8
2022-08-11T11:20:27.843Z,2.9
2022-08-11T11:21:44.089Z,3
2022-08-11T11:23:00.322Z,2.8
2022-08-11T11:24:16.563Z,2.9
2022-08-11T11:25:32.796Z,2.9
2022-08-11T11:26:49.036Z,2.6
2022-08-11T11:28:05.272Z,2.9
2022-08-11T11:29:21.519Z,2.7
2022-08-11T11:30:36.772Z,3
2022-08-11T11:31:53.014Z,3.2
2022-08-11T11:33:09.249Z,3.1
2022-08-11T11:34:25.502Z,2.8
2022-08-11T11:35:41.734Z,3.1
2022-08-11T11:36:57.977Z,2.8
2022-08-11T11:38:14.223Z,3
2022-08-11T11:39:30.450Z,2.9
2022-08-11T11:42:02.939Z,2.7
2022-08-11T11:43:19.183Z,2.9
2022-08-11T11:44:35.415Z,3
2022-08-11T11:45:51.653Z,2.8
2022-08-11T11:47:06.924Z,2.7
2022-08-11T11:48:23.154Z,2.6
2022-08-11T11:49:39.401Z,2.7
2022-08-11T11:50:55.633Z,2.6
2022-08-11T11:52:11.881Z,2.9
2022-08-11T11:53:28.122Z,2.8
2022-08-11T11:54:44.367Z,2.9
2022-08-11T11:57:16.844Z,3.1
2022-08-11T11:58:33.076Z,2.7
2022-08-11T11:59:49.328Z,3
2022-08-11T12:01:05.565Z,2.9
2022-08-11T12:02:21.801Z,3
2022-08-11T12:03:37.049Z,2.9
2022-08-11T12:04:53.304Z,3.1
2022-08-11T12:06:09.534Z,2.9
2022-08-11T12:07:25.780Z,3.1
2022-08-11T12:08:42.006Z,3.1
2022-08-11T12:09:58.256Z,3.2
2022-08-11T12:11:14.489Z,2.8
2022-08-11T12:12:30.746Z,3.1
2022-08-11T12:13:46.975Z,3.1
2022-08-11T12:15:03.206Z,3.3
2022-08-11T12:16:19.467Z,3
2022-08-11T12:17:35.694Z,3.2
2022-08-11T12:18:51.937Z,3
2022-08-11T12:20:07.186Z,3
2022-08-11T12:21:23.431Z,3.1
2022-08-11T12:22:39.676Z,3.2
2022-08-11T12:23:55.919Z,3.1
2022-08-11T12:25:12.156Z,3.2
2022-08-11T12:26:28.403Z,3.1
2022-08-11T12:27:44.637Z,3.4
2022-08-11T12:29:00.884Z,3.3
2022-08-11T12:30:17.120Z,3
2022-08-11T12:31:33.356Z,3
2022-08-11T12:32:49.598Z,3
2022-08-11T12:35:22.081Z,3.1
2022-08-11T12:36:37.335Z,3.1
2022-08-11T12:37:53.579Z,3.2
2022-08-11T12:39:09.815Z,3.3
2022-08-11T12:40:26.046Z,3.2
2022-08-11T12:41:42.288Z,2.9
2022-08-11T12:42:58.526Z,2.9
2022-08-11T12:44:14.772Z,3.2
2022-08-11T12:45:31.010Z,3.2
2022-08-11T12:46:47.259Z,2.8
2022-08-11T12:48:03.503Z,3.1
2022-08-11T12:49:19.737Z,3.1
2022-08-11T12:50:35.983Z,3.1
2022-08-11T12:51:52.214Z,3.3
2022-08-11T12:53:07.484Z,3.2
2022-08-11T12:54:23.722Z,3.3
2022-08-11T12:55:39.947Z,3.1
2022-08-11T12:58:12.440Z,3.1
2022-08-11T12:59:28.675Z,2.9
2022-08-11T13:00:44.922Z,3.2
2022-08-11T13:02:01.147Z,3.1
2022-08-11T13:03:17.394Z,3
2022-08-11T13:04:33.641Z,3.3
2022-08-11T13:05:49.886Z,3.1
2022-08-11T13:07:06.108Z,3.2
2022-08-11T13:08:22.365Z,3.2
2022-08-11T13:09:37.612Z,2.9
2022-08-11T13:10:53.859Z,3
2022-08-11T13:12:10.091Z,2.8
2022-08-11T13:13:26.333Z,3.4
2022-08-11T13:14:42.568Z,2.9
2022-08-11T13:15:58.813Z,2.9
2022-08-11T13:17:15.051Z,3
2022-08-11T13:18:31.298Z,2.7
2022-08-11T13:19:47.539Z,2.8
2022-08-11T13:21:03.772Z,2.8
2022-08-11T13:22:20.022Z,3.1
2022-08-11T13:23:36.260Z,3.1
2022-08-11T13:24:52.492Z,3
2022-08-11T13:26:07.753Z,2.9
2022-08-11T13:27:23.987Z,3
2022-08-11T13:28:40.231Z,3.1
2022-08-11T13:29:56.482Z,3.3
2022-08-11T13:31:12.714Z,3
2022-08-11T13:32:28.945Z,3.1
2022-08-11T13:33:44.222Z,3.2
2022-08-11T13:35:00.468Z,3.1
2022-08-11T13:36:16.696Z,3
2022-08-11T13:37:32.943Z,3.1
2022-08-11T13:38:49.189Z,3
2022-08-11T13:40:05.427Z,3.1
2022-08-11T13:41:21.665Z,3.2
2022-08-11T13:42:37.891Z,2.9
2022-08-11T13:43:54.146Z,3.1
2022-08-11T13:45:10.386Z,3.2
2022-08-11T13:46:26.610Z,3.1
2022-08-11T13:47:42.867Z,2.9
2022-08-11T13:48:59.096Z,3
2022-08-11T13:50:14.362Z,3.1
2022-08-11T13:51:30.610Z,3.1
2022-08-11T13:52:46.847Z,3.5
2022-08-11T13:55:19.326Z,3.2
2022-08-11T13:56:35.567Z,3.2
2022-08-11T13:57:51.791Z,3
2022-08-11T13:59:08.041Z,3
2022-08-11T14:00:24.281Z,2.9
2022-08-11T14:01:40.516Z,3
2022-08-11T14:02:56.771Z,3.1
2022-08-11T14:04:12.993Z,3.1
2022-08-11T14:05:29.236Z,3.2
2022-08-11T14:06:44.487Z,3.1
2022-08-11T14:08:00.730Z,3
2022-08-11T14:09:16.986Z,2.9
2022-08-11T14:10:33.228Z,3
2022-08-11T14:11:49.451Z,2.8
2022-08-11T14:13:05.691Z,3.1
2022-08-11T14:14:21.931Z,3
2022-08-11T14:15:38.173Z,2.9
2022-08-11T14:16:54.415Z,3
2022-08-11T14:18:10.656Z,3
2022-08-11T14:19:26.903Z,2.9
2022-08-11T14:20:43.139Z,2.8
2022-08-11T14:21:59.389Z,3
2022-08-11T14:23:14.645Z,3.1
2022-08-11T14:24:30.886Z,2.9
2022-08-11T14:25:47.108Z,3.1
2022-08-11T14:27:03.358Z,3.2
2022-08-11T14:28:19.591Z,2.9
2022-08-11T14:29:35.844Z,3
2022-08-11T14:30:52.070Z,3.1
2022-08-11T14:32:08.317Z,3.3
2022-08-11T14:33:24.553Z,3.1
2022-08-11T14:34:40.791Z,3.1
2022-08-11T14:37:13.290Z,3.4
2022-08-11T14:39:45.753Z,3.2
2022-08-11T14:41:01.009Z,3.2
2022-08-11T14:42:17.250Z,3.1
2022-08-11T14:43:33.503Z,3.1
2022-08-11T14:44:49.732Z,3.1
2022-08-11T14:46:05.988Z,3
2022-08-11T14:47:22.222Z,3.2
2022-08-11T14:48:38.464Z,3
2022-08-11T14:49:54.708Z,2.9
2022-08-11T14:51:10.939Z,2.9
2022-08-11T14:52:27.188Z,3
2022-08-11T14:53:43.412Z,2.9
2022-08-11T14:54:59.656Z,4.7
2022-08-11T14:56:15.908Z,3.6
2022-08-11T14:57:31.166Z,3.4
2022-08-11T14:58:47.401Z,6
2022-08-11T15:00:03.631Z,3.9
2022-08-11T15:01:19.886Z,3.1
2022-08-11T15:02:36.111Z,3.4
2022-08-11T15:03:52.366Z,8.6
2022-08-11T15:05:08.607Z,3
2022-08-11T15:06:24.848Z,3.1
2022-08-11T15:07:41.078Z,2.9
2022-08-11T15:08:57.318Z,2.7
2022-08-11T15:10:13.558Z,3
2022-08-11T15:11:29.808Z,3
2022-08-11T15:12:46.052Z,2.9
2022-08-11T15:14:01.298Z,2.7
2022-08-11T15:15:17.537Z,3
2022-08-11T15:16:33.774Z,2.9
2022-08-11T15:17:50.032Z,2.9
2022-08-11T15:19:06.258Z,2.9
2022-08-11T15:20:22.505Z,2.8
2022-08-11T15:21:38.748Z,2.6
2022-08-11T15:22:54.980Z,2.9
2022-08-11T15:24:11.232Z,2.7
2022-08-11T15:25:27.462Z,2.8
2022-08-11T15:26:43.716Z,3
2022-08-11T15:27:59.935Z,2.9
2022-08-11T15:29:16.178Z,2.8
2022-08-11T15:30:31.442Z,3
2022-08-11T15:31:47.675Z,2.9
2022-08-11T15:34:20.168Z,3
2022-08-11T15:35:36.401Z,2.8
2022-08-11T15:36:52.637Z,2.9
2022-08-11T15:38:08.887Z,2.8
2022-08-11T15:39:25.134Z,2.9
2022-08-11T15:40:41.366Z,2.8
2022-08-11T15:41:57.602Z,2.8
2022-08-11T15:43:13.845Z,2.8
2022-08-11T15:44:30.092Z,2.7
2022-08-11T15:45:46.321Z,2.9
2022-08-11T15:47:01.582Z,2.8
2022-08-11T15:48:17.827Z,2.7
2022-08-11T15:49:34.064Z,2.9
2022-08-11T15:50:50.303Z,2.9
2022-08-11T15:53:22.784Z,2.8
2022-08-11T15:54:39.028Z,2.5
2022-08-11T15:55:55.262Z,2.9
2022-08-11T15:57:11.509Z,2.9
2022-08-11T15:58:27.747Z,2.8
2022-08-11T15:59:43.985Z,2.6
2022-08-11T16:01:00.235Z,3
2022-08-11T16:02:16.471Z,2.8
2022-08-11T16:03:31.729Z,2.7
2022-08-11T16:04:47.958Z,2.8
2022-08-11T16:06:04.200Z,2.7
2022-08-11T16:07:20.444Z,2.8
2022-08-11T16:08:36.680Z,2.7
2022-08-11T16:09:52.927Z,2.6
2022-08-11T16:11:09.157Z,2.5
2022-08-11T16:12:25.403Z,2.6
2022-08-11T16:13:41.648Z,2.6
2022-08-11T16:14:57.891Z,2.6
2022-08-11T16:16:14.127Z,2.6
2022-08-11T16:17:30.372Z,2.7
2022-08-11T16:18:46.615Z,2.5
2022-08-11T16:20:01.859Z,2.7
2022-08-11T16:21:18.115Z,2.7
2022-08-11T16:22:34.350Z,2.7
2022-08-11T16:23:50.592Z,2.6
2022-08-11T16:25:06.826Z,2.7
2022-08-11T16:26:23.078Z,2.6
2022-08-11T16:27:39.301Z,2.7
2022-08-11T16:28:55.542Z,2.5
2022-08-11T16:30:11.792Z,2.6
2022-08-11T16:31:28.036Z,2.4
2022-08-11T16:32:44.269Z,2.4
2022-08-11T16:34:00.000Z,2.4
2022-08-11T16:35:16.747Z,2.4
2022-08-11T16:36:32.004Z,2.2
2022-08-11T16:37:48.257Z,2.2
2022-08-11T16:39:04.487Z,2.2
2022-08-11T16:40:20.732Z,2.3
2022-08-11T16:41:36.967Z,2.2
2022-08-11T16:42:53.206Z,2.2
2022-08-11T16:44:09.454Z,2.1
2022-08-11T16:45:25.691Z,2.2
2022-08-11T16:46:41.930Z,2.1
2022-08-11T16:47:58.171Z,2.1
2022-08-11T16:49:14.422Z,2.1
2022-08-11T16:50:30.648Z,2
2022-08-11T16:51:46.901Z,1.9
2022-08-11T16:53:02.143Z,1.9
2022-08-11T16:54:18.385Z,1.9
2022-08-11T16:55:34.639Z,2.1
2022-08-11T16:56:50.876Z,1.8
2022-08-11T16:58:07.115Z,1.9
2022-08-11T16:59:23.345Z,2.1
2022-08-11T17:00:39.602Z,1.9
2022-08-11T17:01:55.839Z,1.9
2022-08-11T17:03:12.071Z,1.7
2022-08-11T17:04:28.319Z,2
2022-08-11T17:05:44.556Z,1.8
2022-08-11T17:07:00.788Z,1.9
2022-08-11T17:08:17.047Z,1.9
2022-08-11T17:09:32.284Z,1.9
2022-08-11T17:10:48.533Z,1.8
2022-08-11T17:12:04.772Z,1.9
2022-08-11T17:13:21.013Z,1.8
2022-08-11T17:14:37.264Z,1.9
2022-08-11T17:15:53.505Z,1.9
2022-08-11T17:17:09.731Z,1.9
2022-08-11T17:18:25.968Z,1.9
2022-08-11T17:19:42.221Z,1.9
2022-08-11T17:20:58.456Z,2
2022-08-11T17:22:14.689Z,1.8
2022-08-11T17:23:30.931Z,1.9
2022-08-11T17:24:47.183Z,1.8
2022-08-11T17:26:02.447Z,1.9
2022-08-11T17:27:18.684Z,1.9
2022-08-11T17:28:34.922Z,1.8
2022-08-11T17:29:51.151Z,1.8
2022-08-11T17:31:07.404Z,2
2022-08-11T17:32:23.650Z,1.8
2022-08-11T17:33:39.873Z,1.8
2022-08-11T17:34:56.129Z,1.6
2022-08-11T17:36:12.362Z,1.7
2022-08-11T17:37:28.595Z,11.7
2022-08-11T17:40:01.091Z,2.1
2022-08-11T17:41:17.332Z,1.7
2022-08-11T17:42:32.583Z,1.8
2022-08-11T17:43:48.814Z,1.8
2022-08-11T17:45:05.051Z,1.8
2022-08-11T17:46:21.291Z,2.5
2022-08-11T17:47:37.542Z,1.8
2022-08-11T17:48:52.796Z,1.8
2022-08-11T17:50:09.051Z,1.8
2022-08-11T17:51:25.281Z,1.6
2022-08-11T17:52:41.522Z,1.9
2022-08-11T17:55:14.011Z,1.9
2022-08-11T17:56:30.249Z,1.8
2022-08-11T17:57:46.478Z,2.2
2022-08-11T17:59:02.730Z,1.8
2022-08-11T18:00:18.958Z,1.7
2022-08-11T18:01:35.199Z,1.7
2022-08-11T18:02:51.436Z,1.7
2022-08-11T18:04:07.680Z,1.6
2022-08-11T18:05:22.937Z,1.6
2022-08-11T18:06:39.180Z,1.9
2022-08-11T18:07:55.426Z,1.7
2022-08-11T18:09:11.661Z,2
2022-08-11T18:10:27.912Z,1.8
2022-08-11T18:11:44.150Z,1.6
2022-08-11T18:13:00.380Z,1.8
2022-08-11T18:14:16.618Z,1.9
2022-08-11T18:15:32.871Z,1.7
2022-08-11T18:16:49.114Z,1.6